createdAt,value
2022-10-23T00:01:38.196Z,17.90
2022-10-23T00:04:08.779Z,17.90
2022-10-23T00:06:37.597Z,17.90
2022-10-23T00:09:08.305Z,17.90
2022-10-23T00:11:37.621Z,17.90
2022-10-23T00:14:09.076Z,17.80
2022-10-23T00:16:37.952Z,17.80
2022-10-23T00:19:06.994Z,17.70
2022-10-23T00:21:35.472Z,17.70
2022-10-23T00:24:03.812Z,17.70
2022-10-23T00:26:32.317Z,17.70
2022-10-23T00:29:00.719Z,17.70
2022-10-23T00:31:30.417Z,17.60
2022-10-23T00:33:59.022Z,17.60
2022-10-23T00:36:28.324Z,17.60
2022-10-23T00:38:56.729Z,17.50
2022-10-23T00:41:28.502Z,17.60
2022-10-23T00:44:00.711Z,17.50
2022-10-23T00:46:30.871Z,17.50
2022-10-23T00:49:00.351Z,17.50
2022-10-23T00:51:33.477Z,17.40
2022-10-23T00:54:22.841Z,17.40
2022-10-23T00:56:52.555Z,17.40
2022-10-23T00:59:21.072Z,17.40
2022-10-23T01:01:51.029Z,17.30
2022-10-23T01:04:20.493Z,17.30
2022-10-23T01:07:00.502Z,17.30
2022-10-23T01:09:33.740Z,17.30
2022-10-23T01:12:11.663Z,17.30
2022-10-23T01:14:48.151Z,17.30
2022-10-23T01:17:25.862Z,17.30
2022-10-23T01:20:08.250Z,17.30
2022-10-23T01:22:55.165Z,17.30
2022-10-23T01:25:33.218Z,17.20
2022-10-23T01:28:06.001Z,17.20
2022-10-23T01:30:36.402Z,17.20
2022-10-23T01:33:11.112Z,17.20
2022-10-23T01:35:50.665Z,17.20
2022-10-23T01:38:24.172Z,17.20
2022-10-23T01:41:02.233Z,17.10
2022-10-23T01:43:37.056Z,17.10
2022-10-23T01:46:09.953Z,17.10
2022-10-23T01:48:42.113Z,17.10
2022-10-23T01:51:14.441Z,17.10
2022-10-23T01:53:45.415Z,17.10
2022-10-23T01:56:19.086Z,17.10
2022-10-23T01:58:53.537Z,17.00
2022-10-23T02:01:27.149Z,17.00
2022-10-23T02:06:30.853Z,16.90
2022-10-23T02:08:59.415Z,16.80
2022-10-23T02:11:28.756Z,16.80
2022-10-23T02:14:05.236Z,16.90
2022-10-23T02:16:40.674Z,16.90
2022-10-23T02:19:17.747Z,16.90
2022-10-23T02:21:53.260Z,16.90
2022-10-23T02:24:30.418Z,16.90
2022-10-23T02:27:02.595Z,16.90
2022-10-23T02:29:36.296Z,16.90
2022-10-23T02:32:04.860Z,16.90
2022-10-23T02:34:33.279Z,16.90
2022-10-23T02:37:01.743Z,16.90
2022-10-23T02:39:31.048Z,16.90
2022-10-23T02:42:05.294Z,16.80
2022-10-23T02:44:44.287Z,16.80
2022-10-23T02:47:26.306Z,16.80
2022-10-23T02:50:05.016Z,16.80
2022-10-23T02:52:42.722Z,16.80
2022-10-23T02:55:21.848Z,16.80
2022-10-23T02:57:56.314Z,16.80
2022-10-23T03:00:27.034Z,16.80
2022-10-23T03:02:59.239Z,16.80
2022-10-23T03:05:34.597Z,16.90
2022-10-23T03:08:05.271Z,16.80
2022-10-23T03:10:33.613Z,16.90
2022-10-23T03:13:02.020Z,16.80
2022-10-23T03:15:40.692Z,16.80
2022-10-23T03:18:13.248Z,16.80
2022-10-23T03:20:46.131Z,16.80
2022-10-23T03:23:16.263Z,16.80
2022-10-23T03:25:44.680Z,16.80
2022-10-23T03:28:26.476Z,16.80
2022-10-23T03:30:56.360Z,16.70
2022-10-23T03:33:25.290Z,16.70
2022-10-23T03:35:53.744Z,16.60
2022-10-23T03:38:22.464Z,16.40
2022-10-23T03:40:50.837Z,16.40
2022-10-23T03:43:19.204Z,16.40
2022-10-23T03:45:47.468Z,16.40
2022-10-23T03:48:19.411Z,16.50
2022-10-23T03:50:47.818Z,16.50
2022-10-23T03:53:16.354Z,16.50
2022-10-23T03:55:45.531Z,16.50
2022-10-23T03:58:14.105Z,16.50
2022-10-23T04:03:16.092Z,16.50
2022-10-23T04:05:45.686Z,16.50
2022-10-23T04:08:17.638Z,16.60
2022-10-23T04:10:50.955Z,16.60
2022-10-23T04:13:22.620Z,16.60
2022-10-23T04:15:51.877Z,16.60
2022-10-23T04:18:20.609Z,16.60
2022-10-23T04:20:51.021Z,16.50
2022-10-23T04:23:19.912Z,16.50
2022-10-23T04:25:49.300Z,16.50
2022-10-23T04:28:17.585Z,16.50
2022-10-23T04:30:47.323Z,16.50
2022-10-23T04:33:15.717Z,16.50
2022-10-23T04:35:44.985Z,16.40
2022-10-23T04:38:14.779Z,16.40
2022-10-23T04:40:43.156Z,16.40
2022-10-23T04:43:11.956Z,16.30
2022-10-23T04:45:42.111Z,16.30
2022-10-23T04:48:10.965Z,16.30
2022-10-23T04:50:58.678Z,16.20
2022-10-23T04:53:32.568Z,16.20
2022-10-23T04:56:15.836Z,16.20
2022-10-23T04:58:51.512Z,16.20
2022-10-23T05:01:20.399Z,16.30
2022-10-23T05:03:49.864Z,16.30
2022-10-23T05:06:18.151Z,16.30
2022-10-23T05:09:13.863Z,16.30
2022-10-23T05:11:56.942Z,16.30
2022-10-23T05:14:25.829Z,16.20
2022-10-23T05:16:59.852Z,16.20
2022-10-23T05:19:32.331Z,16.20
2022-10-23T05:22:01.296Z,16.20
2022-10-23T05:24:48.213Z,16.10
2022-10-23T05:27:22.001Z,16.20
2022-10-23T05:29:52.124Z,16.20
2022-10-23T05:32:26.857Z,16.20
2022-10-23T05:34:56.223Z,16.10
2022-10-23T05:37:28.327Z,16.00
2022-10-23T05:40:11.439Z,16.00
2022-10-23T05:42:41.920Z,16.10
2022-10-23T05:45:12.898Z,16.10
2022-10-23T05:48:10.942Z,16.10
2022-10-23T05:51:11.138Z,16.10
2022-10-23T05:53:57.893Z,16.00
2022-10-23T05:56:35.980Z,16.00
2022-10-23T05:59:11.008Z,16.00
2022-10-23T06:02:02.514Z,16.10
2022-10-23T06:04:48.499Z,16.00
2022-10-23T06:07:16.892Z,16.00
2022-10-23T06:09:47.547Z,16.00
2022-10-23T06:12:17.225Z,16.00
2022-10-23T06:14:48.528Z,16.10
2022-10-23T06:17:17.227Z,16.10
2022-10-23T06:19:47.937Z,16.10
2022-10-23T06:24:56.761Z,16.00
2022-10-23T06:27:29.514Z,15.90
2022-10-23T06:29:58.121Z,16.00
2022-10-23T06:32:26.539Z,16.00
2022-10-23T06:35:12.592Z,16.00
2022-10-23T06:37:41.083Z,15.90
2022-10-23T06:40:27.348Z,16.00
2022-10-23T06:43:05.048Z,16.00
2022-10-23T06:45:36.207Z,16.00
2022-10-23T06:48:16.776Z,16.00
2022-10-23T06:51:07.378Z,16.00
2022-10-23T06:53:41.935Z,16.00
2022-10-23T06:56:29.293Z,16.00
2022-10-23T06:58:59.913Z,16.00
2022-10-23T07:01:28.541Z,16.10
2022-10-23T07:03:57.259Z,16.20
2022-10-23T07:06:27.992Z,16.30
2022-10-23T07:08:56.369Z,16.30
2022-10-23T07:11:43.105Z,16.30
2022-10-23T07:14:12.921Z,16.40
2022-10-23T07:16:41.572Z,16.40
2022-10-23T07:19:11.242Z,16.40
2022-10-23T07:21:56.225Z,16.50
2022-10-23T07:24:43.983Z,16.60
2022-10-23T07:27:20.430Z,16.80
2022-10-23T07:29:57.413Z,16.90
2022-10-23T07:32:28.170Z,17.10
2022-10-23T07:37:57.298Z,17.30
2022-10-23T07:40:26.159Z,17.40
2022-10-23T07:42:58.094Z,17.30
2022-10-23T07:45:28.889Z,17.30
2022-10-23T07:47:57.592Z,17.10
2022-10-23T07:50:30.764Z,17.10
2022-10-23T07:52:59.843Z,17.20
2022-10-23T07:55:37.625Z,17.20
2022-10-23T07:58:12.318Z,17.20
2022-10-23T08:00:52.101Z,17.20
2022-10-23T08:03:29.634Z,17.20
2022-10-23T08:05:58.735Z,17.30
2022-10-23T08:08:28.038Z,17.30
2022-10-23T08:11:02.982Z,17.20
2022-10-23T08:13:37.354Z,17.30
2022-10-23T08:16:09.643Z,17.20
2022-10-23T08:19:05.150Z,17.30
2022-10-23T08:21:34.107Z,17.30
2022-10-23T08:24:02.779Z,17.40
2022-10-23T08:26:32.445Z,17.40
2022-10-23T08:29:01.692Z,17.50
2022-10-23T08:31:32.553Z,17.60
2022-10-23T08:34:30.077Z,17.70
2022-10-23T08:36:59.610Z,17.80
2022-10-23T08:39:28.107Z,18.00
2022-10-23T08:42:05.858Z,18.10
2022-10-23T08:44:37.670Z,18.30
2022-10-23T08:47:11.782Z,18.30
2022-10-23T08:49:51.788Z,18.30
2022-10-23T08:52:26.891Z,18.40
2022-10-23T08:55:03.515Z,18.50
2022-10-23T08:57:40.040Z,18.50
2022-10-23T09:00:15.704Z,18.60
2022-10-23T09:02:47.482Z,18.80
2022-10-23T09:05:20.535Z,19.00
2022-10-23T09:08:12.740Z,19.10
2022-10-23T09:10:57.681Z,19.30
2022-10-23T09:13:41.639Z,19.40
2022-10-23T09:16:22.826Z,19.60
2022-10-23T09:18:58.457Z,19.50
2022-10-23T09:21:28.812Z,19.60
2022-10-23T09:23:57.577Z,19.70
2022-10-23T09:26:25.885Z,19.80
2022-10-23T09:29:03.534Z,19.90
2022-10-23T09:31:31.964Z,20.00
2022-10-23T09:34:02.697Z,20.10
2022-10-23T09:36:31.190Z,20.20
2022-10-23T09:39:01.664Z,20.30
2022-10-23T09:41:32.959Z,20.40
2022-10-23T09:44:03.023Z,20.40
2022-10-23T09:46:39.684Z,20.40
2022-10-23T09:49:19.537Z,20.50
2022-10-23T09:51:57.495Z,20.50
2022-10-23T09:54:26.093Z,20.40
2022-10-23T09:56:56.237Z,20.40
2022-10-23T09:59:28.487Z,20.60
2022-10-23T10:01:59.607Z,20.80
2022-10-23T10:04:57.785Z,20.80
2022-10-23T10:07:30.269Z,20.70
2022-10-23T10:10:00.587Z,20.90
2022-10-23T10:12:43.382Z,21.10
2022-10-23T10:15:27.971Z,21.20
2022-10-23T10:18:07.812Z,21.30
2022-10-23T10:20:57.916Z,21.30
2022-10-23T10:23:34.670Z,21.40
2022-10-23T10:26:16.807Z,21.30
2022-10-23T10:29:05.264Z,21.10
2022-10-23T10:31:50.652Z,21.00
2022-10-23T10:34:29.400Z,21.10
2022-10-23T10:37:06.825Z,21.20
2022-10-23T10:39:47.700Z,21.40
2022-10-23T10:42:47.448Z,21.50
2022-10-23T10:45:32.143Z,21.50
2022-10-23T10:48:24.605Z,21.50
2022-10-23T10:51:22.100Z,21.60
2022-10-23T10:54:14.859Z,21.70
2022-10-23T10:56:45.828Z,21.70
2022-10-23T10:59:22.030Z,21.80
2022-10-23T11:01:57.791Z,21.80
2022-10-23T11:04:35.074Z,21.80
2022-10-23T11:07:09.105Z,21.60
2022-10-23T11:09:40.479Z,21.40
2022-10-23T11:12:15.729Z,21.40
2022-10-23T11:14:44.372Z,21.50
2022-10-23T11:17:17.114Z,21.70
2022-10-23T11:19:48.497Z,21.70
2022-10-23T11:22:22.939Z,21.70
2022-10-23T11:25:28.625Z,21.70
2022-10-23T11:28:14.401Z,21.80
2022-10-23T11:31:00.701Z,21.80
2022-10-23T11:33:58.851Z,21.90
2022-10-23T11:36:44.211Z,21.90
2022-10-23T11:39:24.334Z,22.00
2022-10-23T11:41:57.533Z,22.00
2022-10-23T11:44:46.072Z,22.00
2022-10-23T11:47:39.301Z,22.00
2022-10-23T11:50:28.131Z,22.00
2022-10-23T11:53:13.567Z,22.00
2022-10-23T11:55:58.763Z,22.00
2022-10-23T11:58:32.167Z,22.00
2022-10-23T12:01:17.895Z,22.00
2022-10-23T12:03:52.563Z,22.00
2022-10-23T12:06:26.138Z,22.00
2022-10-23T12:08:59.973Z,22.00
2022-10-23T12:11:40.201Z,22.00
2022-10-23T12:14:27.439Z,21.90
2022-10-23T12:16:57.359Z,21.90
2022-10-23T12:19:28.245Z,21.90
2022-10-23T12:22:00.001Z,21.90
2022-10-23T12:24:42.555Z,21.90
2022-10-23T12:27:26.175Z,21.90
2022-10-23T12:30:04.187Z,21.90
2022-10-23T12:33:07.967Z,22.00
2022-10-23T12:36:22.999Z,22.00
2022-10-23T12:38:51.677Z,22.00
2022-10-23T12:41:25.353Z,22.10
2022-10-23T12:43:56.665Z,22.10
2022-10-23T12:46:32.669Z,22.10
2022-10-23T12:49:03.972Z,22.20
2022-10-23T12:51:35.234Z,22.20
2022-10-23T12:54:04.586Z,22.20
2022-10-23T12:56:36.962Z,22.20
2022-10-23T12:59:06.428Z,22.20
2022-10-23T13:01:37.650Z,22.20
2022-10-23T13:04:14.453Z,22.20
2022-10-23T13:06:45.172Z,22.20
2022-10-23T13:09:24.202Z,22.20
2022-10-23T13:12:34.428Z,22.20
2022-10-23T13:15:14.755Z,22.20
2022-10-23T13:17:45.110Z,22.20
2022-10-23T13:20:26.366Z,22.20
2022-10-23T13:23:00.941Z,22.20
2022-10-23T13:25:32.285Z,22.20
2022-10-23T13:28:21.129Z,22.20
2022-10-23T13:31:04.166Z,22.30
2022-10-23T13:33:37.764Z,22.30
2022-10-23T13:36:20.785Z,22.30
2022-10-23T13:39:02.402Z,22.30
2022-10-23T13:41:36.512Z,22.30
2022-10-23T13:44:04.941Z,22.40
2022-10-23T13:46:33.280Z,22.40
2022-10-23T13:49:01.480Z,22.40
2022-10-23T13:51:32.054Z,22.40
2022-10-23T13:54:01.805Z,22.40
2022-10-23T13:56:30.176Z,22.50
2022-10-23T13:58:58.712Z,22.50
2022-10-23T14:01:30.424Z,22.60
2022-10-23T14:04:00.358Z,22.60
2022-10-23T14:06:28.758Z,22.60
2022-10-23T14:08:57.205Z,22.50
2022-10-23T14:11:27.400Z,22.50
2022-10-23T14:13:56.818Z,22.50
2022-10-23T14:16:25.167Z,22.50
2022-10-23T14:18:53.558Z,22.50
2022-10-23T14:21:23.468Z,22.50
2022-10-23T14:23:53.171Z,22.50
2022-10-23T14:26:25.288Z,22.40
2022-10-23T14:28:57.554Z,22.50
2022-10-23T14:31:28.854Z,22.40
2022-10-23T14:34:00.609Z,22.40
2022-10-23T14:36:38.532Z,22.40
2022-10-23T14:39:18.150Z,22.40
2022-10-23T14:41:46.506Z,22.40
2022-10-23T14:44:16.339Z,22.40
2022-10-23T14:46:44.813Z,22.40
2022-10-23T14:49:13.269Z,22.40
2022-10-23T14:51:41.905Z,22.40
2022-10-23T14:54:10.274Z,22.40
2022-10-23T14:56:40.882Z,22.40
2022-10-23T14:59:10.871Z,22.40
2022-10-23T15:01:45.381Z,22.40
2022-10-23T15:04:16.259Z,22.40
2022-10-23T15:06:45.137Z,22.30
2022-10-23T15:09:13.888Z,22.30
2022-10-23T15:11:42.484Z,22.30
2022-10-23T15:14:10.915Z,22.30
2022-10-23T15:16:42.230Z,22.20
2022-10-23T15:19:15.239Z,22.20
2022-10-23T15:21:46.920Z,22.20
2022-10-23T15:24:15.344Z,22.20
2022-10-23T15:26:44.449Z,22.10
2022-10-23T15:29:14.735Z,22.10
2022-10-23T15:31:48.384Z,22.10
2022-10-23T15:34:18.815Z,22.10
2022-10-23T15:36:48.399Z,22.00
2022-10-23T15:39:18.828Z,22.00
2022-10-23T15:41:47.688Z,22.00
2022-10-23T15:44:17.730Z,21.90
2022-10-23T15:46:48.375Z,21.90
2022-10-23T15:49:17.000Z,21.80
2022-10-23T15:51:45.913Z,21.80
2022-10-23T15:54:18.977Z,21.70
2022-10-23T15:56:49.217Z,21.70
2022-10-23T15:59:18.368Z,21.60
2022-10-23T16:01:48.624Z,21.50
2022-10-23T16:04:17.703Z,21.50
2022-10-23T16:06:46.830Z,21.40
2022-10-23T16:09:16.068Z,21.40
2022-10-23T16:11:45.077Z,21.30
2022-10-23T16:14:15.186Z,21.20
2022-10-23T16:16:43.813Z,21.10
2022-10-23T16:19:13.970Z,21.10
2022-10-23T16:21:42.847Z,21.00
2022-10-23T16:24:11.818Z,20.90
2022-10-23T16:26:40.766Z,20.80
2022-10-23T16:29:09.926Z,20.80
2022-10-23T16:31:38.359Z,20.70
2022-10-23T16:34:07.099Z,20.60
2022-10-23T16:36:39.156Z,20.50
2022-10-23T16:39:22.624Z,20.40
2022-10-23T16:42:09.607Z,20.40
2022-10-23T16:44:56.731Z,20.30
2022-10-23T16:47:24.988Z,20.30
2022-10-23T16:49:53.333Z,20.20
2022-10-23T16:52:23.234Z,20.20
2022-10-23T16:54:51.580Z,20.20
2022-10-23T16:57:20.068Z,20.10
2022-10-23T16:59:48.381Z,20.10
2022-10-23T17:02:16.969Z,20.00
2022-10-23T17:04:45.395Z,20.00
2022-10-23T17:07:14.056Z,19.90
2022-10-23T17:09:46.580Z,19.90
2022-10-23T17:12:15.046Z,19.80
2022-10-23T17:14:43.724Z,19.80
2022-10-23T17:17:12.186Z,19.70
2022-10-23T17:19:46.023Z,19.60
2022-10-23T17:22:17.581Z,19.60
2022-10-23T17:24:50.199Z,19.60
2022-10-23T17:27:22.631Z,19.50
2022-10-23T17:29:50.967Z,19.50
2022-10-23T17:32:19.356Z,19.50
2022-10-23T17:34:47.767Z,19.50
2022-10-23T17:37:17.244Z,19.40
2022-10-23T17:39:46.995Z,19.40
2022-10-23T17:42:15.994Z,19.30
2022-10-23T17:44:44.382Z,19.20
2022-10-23T17:47:12.677Z,19.20
2022-10-23T17:49:42.876Z,19.20
2022-10-23T17:52:14.989Z,19.20
2022-10-23T17:54:43.446Z,19.10
2022-10-23T17:57:13.188Z,19.10
2022-10-23T17:59:41.652Z,19.10
2022-10-23T18:02:13.047Z,19.10
2022-10-23T18:04:41.501Z,19.10
2022-10-23T18:07:09.806Z,19.10
2022-10-23T18:09:38.225Z,19.00
2022-10-23T18:12:06.706Z,19.00
2022-10-23T18:14:37.735Z,18.90
2022-10-23T18:17:06.283Z,18.80
2022-10-23T18:19:34.716Z,18.80
2022-10-23T18:22:03.084Z,18.80
2022-10-23T18:24:32.052Z,18.80
2022-10-23T18:27:00.509Z,18.80
2022-10-23T18:29:28.849Z,18.80
2022-10-23T18:31:58.694Z,18.80
2022-10-23T18:34:27.220Z,18.80
2022-10-23T18:36:56.491Z,18.80
2022-10-23T18:39:26.847Z,18.70
2022-10-23T18:41:57.701Z,18.70
2022-10-23T18:44:29.048Z,18.70
2022-10-23T18:47:00.131Z,18.60
2022-10-23T18:49:29.873Z,18.50
2022-10-23T18:51:58.879Z,18.50
2022-10-23T18:54:28.498Z,18.50
2022-10-23T18:56:57.042Z,18.40
2022-10-23T18:59:25.346Z,18.40
2022-10-23T19:01:54.097Z,18.40
2022-10-23T19:04:24.017Z,18.40
2022-10-23T19:06:52.516Z,18.40
2022-10-23T19:09:21.805Z,18.40
2022-10-23T19:11:50.138Z,18.30
2022-10-23T19:14:18.462Z,18.30
2022-10-23T19:16:58.833Z,18.30
2022-10-23T19:19:31.727Z,18.20
2022-10-23T19:22:04.242Z,18.20
2022-10-23T19:24:37.144Z,18.10
2022-10-23T19:27:07.239Z,18.10
2022-10-23T19:29:40.289Z,18.10
2022-10-23T19:32:09.437Z,18.10
2022-10-23T19:34:39.732Z,18.20
2022-10-23T19:37:08.774Z,18.20
2022-10-23T19:39:37.364Z,18.20
2022-10-23T19:42:06.366Z,18.20
2022-10-23T19:44:35.276Z,18.20
2022-10-23T19:47:04.684Z,18.10
2022-10-23T19:49:33.747Z,18.10
2022-10-23T19:52:04.992Z,18.10
2022-10-23T19:54:34.211Z,18.10
2022-10-23T19:57:03.230Z,18.10
2022-10-23T19:59:32.300Z,18.10
2022-10-23T20:02:01.310Z,18.00
2022-10-23T20:04:30.620Z,18.00
2022-10-23T20:06:59.434Z,17.90
2022-10-23T20:09:29.854Z,17.80
2022-10-23T20:12:00.982Z,17.80
2022-10-23T20:14:30.091Z,17.80
2022-10-23T20:16:59.896Z,17.80
2022-10-23T20:19:28.647Z,17.80
2022-10-23T20:21:57.081Z,17.80
2022-10-23T20:24:25.445Z,17.80
2022-10-23T20:26:56.350Z,17.80
2022-10-23T20:29:25.992Z,17.80
2022-10-23T20:31:54.452Z,17.80
2022-10-23T20:34:22.844Z,17.80
2022-10-23T20:36:51.338Z,17.80
2022-10-23T20:39:21.321Z,17.80
2022-10-23T20:41:49.688Z,17.80
2022-10-23T20:44:20.081Z,17.80
2022-10-23T20:46:49.767Z,17.70
2022-10-23T20:49:18.404Z,17.70
2022-10-23T20:51:48.076Z,17.60
2022-10-23T20:54:17.781Z,17.50
2022-10-23T20:56:46.222Z,17.50
2022-10-23T20:59:16.509Z,17.50
2022-10-23T21:01:49.487Z,17.40
2022-10-23T21:04:19.948Z,17.40
2022-10-23T21:07:08.891Z,17.40
2022-10-23T21:09:38.518Z,17.40
2022-10-23T21:12:07.498Z,17.40
2022-10-23T21:14:36.169Z,17.40
2022-10-23T21:17:06.274Z,17.40
2022-10-23T21:19:34.781Z,17.40
2022-10-23T21:22:03.369Z,17.40
2022-10-23T21:24:31.831Z,17.40
2022-10-23T21:27:00.423Z,17.40
2022-10-23T21:29:28.848Z,17.50
2022-10-23T21:31:59.337Z,17.70
2022-10-23T21:34:29.865Z,17.80
2022-10-23T21:37:14.891Z,17.80
2022-10-23T21:39:44.318Z,17.90
2022-10-23T21:42:13.755Z,17.90
2022-10-23T21:44:42.292Z,17.90
2022-10-23T21:47:10.723Z,17.90
2022-10-23T21:49:40.494Z,17.90
2022-10-23T21:52:08.833Z,17.80
2022-10-23T21:54:37.183Z,17.80
2022-10-23T21:57:05.746Z,17.80
2022-10-23T21:59:35.920Z,17.80
2022-10-23T22:02:05.071Z,17.70
2022-10-23T22:04:33.783Z,17.70
2022-10-23T22:07:03.900Z,17.60
2022-10-23T22:09:33.524Z,17.60
2022-10-23T22:12:02.000Z,17.70
2022-10-23T22:14:30.288Z,17.70
2022-10-23T22:16:58.817Z,17.70
2022-10-23T22:19:27.252Z,17.80
2022-10-23T22:21:55.841Z,17.80
2022-10-23T22:24:25.751Z,17.80
2022-10-23T22:26:56.554Z,17.70
2022-10-23T22:29:26.998Z,17.70
2022-10-23T22:31:55.430Z,17.70
2022-10-23T22:34:47.858Z,17.60
2022-10-23T22:37:14.429Z,17.60
2022-10-23T22:39:44.307Z,17.60
2022-10-23T22:42:12.694Z,17.60
2022-10-23T22:44:41.081Z,17.50
2022-10-23T22:47:09.351Z,17.50
2022-10-23T22:49:38.438Z,17.50
2022-10-23T22:52:06.834Z,17.50
2022-10-23T22:54:35.432Z,17.60
2022-10-23T22:57:05.427Z,17.60
2022-10-23T22:59:33.908Z,17.60
2022-10-23T23:02:02.296Z,17.70
2022-10-23T23:04:38.983Z,17.60
2022-10-23T23:07:08.526Z,17.60
2022-10-23T23:09:38.816Z,17.70
2022-10-23T23:12:10.495Z,17.70
2022-10-23T23:14:39.083Z,17.70
2022-10-23T23:17:08.260Z,17.70
2022-10-23T23:19:36.541Z,17.80
2022-10-23T23:22:05.761Z,17.90
2022-10-23T23:24:34.298Z,17.90
2022-10-23T23:27:02.705Z,18.00
2022-10-23T23:29:32.436Z,18.00
2022-10-23T23:32:00.716Z,17.90
2022-10-23T23:34:29.608Z,17.90
2022-10-23T23:36:58.012Z,17.90
2022-10-23T23:39:28.534Z,17.80
2022-10-23T23:41:57.124Z,17.80
2022-10-23T23:44:25.643Z,17.70
2022-10-23T23:46:55.855Z,17.70
2022-10-23T23:49:24.299Z,17.60
2022-10-23T23:51:53.551Z,17.60
2022-10-23T23:54:21.913Z,17.60
2022-10-23T23:56:50.424Z,17.60
2022-10-23T23:59:18.764Z,17.50
